createdAt,value
2023-02-15T00:01:36.018Z,29.93
2023-02-15T00:04:03.605Z,28.00
2023-02-15T00:06:31.161Z,29.97
2023-02-15T00:08:58.586Z,28.07
2023-02-15T00:11:42.891Z,25.50
2023-02-15T00:14:12.762Z,31.60
2023-02-15T00:16:41.581Z,26.63
2023-02-15T00:19:09.722Z,27.57
2023-02-15T00:21:38.402Z,30.23
2023-02-15T00:24:08.052Z,28.97
2023-02-15T00:26:35.905Z,29.70
2023-02-15T00:29:03.769Z,28.80
2023-02-15T00:31:32.659Z,32.27
2023-02-15T00:34:03.888Z,30.10
2023-02-15T00:36:31.163Z,30.37
2023-02-15T00:38:58.457Z,29.40
2023-02-15T00:41:25.995Z,29.17
2023-02-15T00:43:53.221Z,28.07
2023-02-15T00:46:20.561Z,28.27
2023-02-15T00:48:47.861Z,28.90
2023-02-15T00:51:15.846Z,28.93
2023-02-15T00:53:44.437Z,28.50
2023-02-15T00:56:12.001Z,27.17
2023-02-15T00:58:39.795Z,27.60
2023-02-15T01:01:09.411Z,28.53
2023-02-15T01:03:37.108Z,28.23
2023-02-15T01:06:05.487Z,27.93
2023-02-15T01:08:33.443Z,26.57
2023-02-15T01:11:05.561Z,28.87
2023-02-15T01:13:32.942Z,30.70
2023-02-15T01:16:00.579Z,27.80
2023-02-15T01:18:28.422Z,28.77
2023-02-15T01:20:55.849Z,28.77
2023-02-15T01:23:23.139Z,28.50
2023-02-15T01:25:51.138Z,29.47
2023-02-15T01:28:18.460Z,27.00
2023-02-15T01:30:45.860Z,27.37
2023-02-15T01:33:17.973Z,28.07
2023-02-15T01:35:46.255Z,28.10
2023-02-15T01:38:15.660Z,32.50
2023-02-15T01:40:42.984Z,31.97
2023-02-15T01:43:12.881Z,30.60
2023-02-15T01:45:40.472Z,28.57
2023-02-15T01:48:21.180Z,27.90
2023-02-15T01:50:53.623Z,28.10
2023-02-15T01:53:25.940Z,28.37
2023-02-15T01:55:58.005Z,26.67
2023-02-15T01:58:29.398Z,27.27
2023-02-15T02:01:01.111Z,26.17
2023-02-15T02:03:39.498Z,28.20
2023-02-15T02:06:06.985Z,27.20
2023-02-15T02:08:34.625Z,28.20
2023-02-15T02:11:01.949Z,26.67
2023-02-15T02:13:30.260Z,26.73
2023-02-15T02:16:05.024Z,28.53
2023-02-15T02:18:48.432Z,25.60
2023-02-15T02:21:59.076Z,23.90
2023-02-15T02:25:00.661Z,22.00
2023-02-15T02:27:40.407Z,26.07
2023-02-15T02:30:49.911Z,27.10
2023-02-15T02:33:34.970Z,27.57
2023-02-15T02:36:13.710Z,24.33
2023-02-15T02:38:55.313Z,24.57
2023-02-15T02:41:32.396Z,25.37
2023-02-15T02:44:09.596Z,21.80
2023-02-15T02:46:42.820Z,24.20
2023-02-15T02:49:10.782Z,28.17
2023-02-15T02:51:38.073Z,24.67
2023-02-15T02:54:07.409Z,23.60
2023-02-15T02:56:40.181Z,24.87
2023-02-15T02:59:11.737Z,26.40
2023-02-15T03:01:43.765Z,21.80
2023-02-15T03:04:16.192Z,25.90
2023-02-15T03:06:48.279Z,23.30
2023-02-15T03:09:23.307Z,27.57
2023-02-15T03:11:51.388Z,24.33
2023-02-15T03:14:20.157Z,23.67
2023-02-15T03:16:50.632Z,22.40
2023-02-15T03:19:24.185Z,25.23
2023-02-15T03:21:58.021Z,23.33
2023-02-15T03:24:29.157Z,24.30
2023-02-15T03:26:56.973Z,22.47
2023-02-15T03:29:30.383Z,27.90
2023-02-15T03:32:02.089Z,26.33
2023-02-15T03:34:30.484Z,22.93
2023-02-15T03:37:03.740Z,24.60
2023-02-15T03:39:34.299Z,23.23
2023-02-15T03:42:09.414Z,23.73
2023-02-15T03:44:44.784Z,23.60
2023-02-15T03:47:15.036Z,22.60
2023-02-15T03:49:47.742Z,22.80
2023-02-15T03:52:17.365Z,23.77
2023-02-15T03:54:46.378Z,22.70
2023-02-15T03:57:35.065Z,22.00
2023-02-15T04:00:22.992Z,22.97
2023-02-15T04:03:11.609Z,22.13
2023-02-15T04:05:40.212Z,24.90
2023-02-15T04:08:08.215Z,22.87
2023-02-15T04:10:53.586Z,22.67
2023-02-15T04:13:21.441Z,18.30
2023-02-15T04:16:03.871Z,20.83
2023-02-15T04:18:51.278Z,22.33
2023-02-15T04:21:38.153Z,22.30
2023-02-15T04:24:24.240Z,21.40
2023-02-15T04:26:53.127Z,22.70
2023-02-15T04:29:20.773Z,24.60
2023-02-15T04:31:48.286Z,24.23
2023-02-15T04:34:16.130Z,22.07
2023-02-15T04:36:44.338Z,20.17
2023-02-15T04:39:14.748Z,23.30
2023-02-15T04:41:42.035Z,23.10
2023-02-15T04:44:09.623Z,19.87
2023-02-15T04:46:37.208Z,22.03
2023-02-15T04:49:04.651Z,20.30
2023-02-15T04:51:31.908Z,21.83
2023-02-15T04:53:59.920Z,21.90
2023-02-15T04:56:27.232Z,21.10
2023-02-15T04:58:54.609Z,22.73
2023-02-15T05:01:21.946Z,22.60
2023-02-15T05:03:49.283Z,23.80
2023-02-15T05:06:16.551Z,20.90
2023-02-15T05:08:44.011Z,20.90
2023-02-15T05:11:12.104Z,26.03
2023-02-15T05:13:39.406Z,19.70
2023-02-15T05:16:06.725Z,25.23
2023-02-15T05:18:34.216Z,26.30
2023-02-15T05:21:01.555Z,23.60
2023-02-15T05:23:28.848Z,20.33
2023-02-15T05:26:14.339Z,18.37
2023-02-15T05:28:42.262Z,19.80
2023-02-15T05:31:12.978Z,22.23
2023-02-15T05:33:41.173Z,22.77
2023-02-15T05:36:09.267Z,20.17
2023-02-15T05:38:37.672Z,19.50
2023-02-15T05:41:05.167Z,19.00
2023-02-15T05:43:32.789Z,24.00
2023-02-15T05:46:01.656Z,28.70
2023-02-15T05:48:29.450Z,24.50
2023-02-15T05:51:00.819Z,27.10
2023-02-15T05:53:28.427Z,20.87
2023-02-15T05:55:59.264Z,21.03
2023-02-15T05:58:27.735Z,21.70
2023-02-15T06:00:54.984Z,20.23
2023-02-15T06:03:23.467Z,23.70
2023-02-15T06:05:50.811Z,19.97
2023-02-15T06:08:18.427Z,20.47
2023-02-15T06:10:47.222Z,21.53
2023-02-15T06:13:14.454Z,22.13
2023-02-15T06:15:41.801Z,19.03
2023-02-15T06:18:09.076Z,20.97
2023-02-15T06:20:37.076Z,18.97
2023-02-15T06:23:04.450Z,22.10
2023-02-15T06:25:31.993Z,19.77
2023-02-15T06:27:59.306Z,21.10
2023-02-15T06:30:26.673Z,19.93
2023-02-15T06:32:53.990Z,20.60
2023-02-15T06:35:22.183Z,22.77
2023-02-15T06:37:50.525Z,20.30
2023-02-15T06:40:18.332Z,20.60
2023-02-15T06:42:46.021Z,20.97
2023-02-15T06:45:13.555Z,21.40
2023-02-15T06:47:40.934Z,22.07
2023-02-15T06:50:09.940Z,20.83
2023-02-15T06:52:37.188Z,23.90
2023-02-15T06:55:05.837Z,22.77
2023-02-15T06:57:33.518Z,21.00
2023-02-15T07:00:01.613Z,21.60
2023-02-15T07:02:29.204Z,21.90
2023-02-15T07:04:56.516Z,24.87
2023-02-15T07:07:24.794Z,20.97
2023-02-15T07:09:52.178Z,21.40
2023-02-15T07:12:38.139Z,23.40
2023-02-15T07:15:06.656Z,23.20
2023-02-15T07:17:36.290Z,22.10
2023-02-15T07:20:05.067Z,22.87
2023-02-15T07:22:34.209Z,24.80
2023-02-15T07:25:01.562Z,22.50
2023-02-15T07:27:29.624Z,21.10
2023-02-15T07:29:56.924Z,20.97
2023-02-15T07:32:24.261Z,21.60
2023-02-15T07:34:51.574Z,22.53
2023-02-15T07:37:18.858Z,21.63
2023-02-15T07:39:46.138Z,19.97
2023-02-15T07:42:13.480Z,22.30
2023-02-15T07:44:41.365Z,23.97
2023-02-15T07:47:08.753Z,22.67
2023-02-15T07:49:36.084Z,21.20
2023-02-15T07:52:03.453Z,21.40
2023-02-15T07:54:30.678Z,21.20
2023-02-15T07:56:57.918Z,21.80
2023-02-15T07:59:25.181Z,22.83
2023-02-15T08:01:54.342Z,20.53
2023-02-15T08:04:21.614Z,20.07
2023-02-15T08:06:52.630Z,19.50
2023-02-15T08:09:19.998Z,20.77
2023-02-15T08:11:48.630Z,20.17
2023-02-15T08:14:17.903Z,18.63
2023-02-15T08:16:46.715Z,22.47
2023-02-15T08:19:16.284Z,19.90
2023-02-15T08:21:45.433Z,17.47
2023-02-15T08:24:15.057Z,18.90
2023-02-15T08:26:46.980Z,18.97
2023-02-15T08:29:14.929Z,18.40
2023-02-15T08:31:42.643Z,18.93
2023-02-15T08:34:11.584Z,17.40
2023-02-15T08:36:39.710Z,17.27
2023-02-15T08:39:08.195Z,17.67
2023-02-15T08:41:36.743Z,16.87
2023-02-15T08:44:05.873Z,19.40
2023-02-15T08:46:35.570Z,17.43
2023-02-15T08:49:03.483Z,16.30
2023-02-15T08:51:32.668Z,18.77
2023-02-15T08:54:02.915Z,18.60
2023-02-15T08:56:33.942Z,15.23
2023-02-15T08:59:02.092Z,17.93
2023-02-15T09:01:31.228Z,15.57
2023-02-15T09:04:00.157Z,18.27
2023-02-15T09:06:29.695Z,17.80
2023-02-15T09:08:58.125Z,17.40
2023-02-15T09:11:27.673Z,16.40
2023-02-15T09:13:57.352Z,17.00
2023-02-15T09:16:26.275Z,16.40
2023-02-15T09:18:54.052Z,16.93
2023-02-15T09:21:23.117Z,19.50
2023-02-15T09:23:52.329Z,21.40
2023-02-15T09:26:22.406Z,15.70
2023-02-15T09:28:55.714Z,17.40
2023-02-15T09:31:24.735Z,13.00
2023-02-15T09:33:52.365Z,15.27
2023-02-15T09:36:21.794Z,16.50
2023-02-15T09:38:54.628Z,14.47
2023-02-15T09:41:56.687Z,14.30
2023-02-15T09:44:37.742Z,13.53
2023-02-15T09:47:24.848Z,14.67
2023-02-15T09:49:55.637Z,14.57
2023-02-15T09:52:34.607Z,12.13
2023-02-15T09:55:17.444Z,17.60
2023-02-15T09:57:54.107Z,12.43
2023-02-15T10:00:31.112Z,13.37
2023-02-15T10:03:20.390Z,12.87
2023-02-15T10:06:02.020Z,14.37
2023-02-15T10:08:57.645Z,12.93
2023-02-15T10:11:41.889Z,11.07
2023-02-15T10:14:40.268Z,10.67
2023-02-15T10:17:26.198Z,11.47
2023-02-15T10:20:08.268Z,11.57
2023-02-15T10:22:47.133Z,11.50
2023-02-15T10:25:29.983Z,10.97
2023-02-15T10:28:04.229Z,9.90
2023-02-15T10:30:41.065Z,10.97
2023-02-15T10:33:18.774Z,11.57
2023-02-15T10:35:53.715Z,10.57
2023-02-15T10:38:29.086Z,13.20
2023-02-15T10:41:06.839Z,10.27
2023-02-15T10:43:48.567Z,11.60
2023-02-15T10:46:32.954Z,11.77
2023-02-15T10:49:24.583Z,9.53
2023-02-15T10:52:04.442Z,11.33
2023-02-15T10:54:37.839Z,12.47
2023-02-15T10:57:17.764Z,11.60
2023-02-15T11:00:04.573Z,11.80
2023-02-15T11:02:46.261Z,11.00
2023-02-15T11:05:27.894Z,12.23
2023-02-15T11:07:59.704Z,11.03
2023-02-15T11:10:32.498Z,12.30
2023-02-15T11:13:04.406Z,12.27
2023-02-15T11:15:35.189Z,12.20
2023-02-15T11:18:10.513Z,11.70
2023-02-15T11:20:43.645Z,11.20
2023-02-15T11:23:16.553Z,13.70
2023-02-15T11:25:47.147Z,12.83
2023-02-15T11:28:22.024Z,16.00
2023-02-15T11:30:54.974Z,13.10
2023-02-15T11:33:25.576Z,14.60
2023-02-15T11:35:59.724Z,14.40
2023-02-15T11:38:32.176Z,12.10
2023-02-15T11:41:04.380Z,14.20
2023-02-15T11:43:36.405Z,14.13
2023-02-15T11:46:04.127Z,14.60
2023-02-15T11:48:32.558Z,12.70
2023-02-15T11:51:02.868Z,15.17
2023-02-15T11:53:34.249Z,14.30
2023-02-15T11:56:04.294Z,12.60
2023-02-15T11:58:38.535Z,14.53
2023-02-15T12:01:14.826Z,14.37
2023-02-15T12:03:47.945Z,12.13
2023-02-15T12:06:24.616Z,15.27
2023-02-15T12:08:59.804Z,14.10
2023-02-15T12:11:33.213Z,13.20
2023-02-15T12:14:05.510Z,11.40
2023-02-15T12:16:42.179Z,13.50
2023-02-15T12:19:25.993Z,12.27
2023-02-15T12:21:54.238Z,13.77
2023-02-15T12:24:25.567Z,13.70
2023-02-15T12:27:02.971Z,14.57
2023-02-15T12:29:36.521Z,11.83
2023-02-15T12:32:05.325Z,13.80
2023-02-15T12:34:39.716Z,11.50
2023-02-15T12:37:16.184Z,10.27
2023-02-15T12:39:53.223Z,14.60
2023-02-15T12:42:21.965Z,12.97
2023-02-15T12:44:58.568Z,12.20
2023-02-15T12:47:30.170Z,13.57
2023-02-15T12:50:17.231Z,11.87
2023-02-15T12:52:47.771Z,13.30
2023-02-15T12:55:24.640Z,13.27
2023-02-15T12:58:07.802Z,13.00
2023-02-15T13:00:35.860Z,12.80
2023-02-15T13:03:04.502Z,12.53
2023-02-15T13:05:38.763Z,11.17
2023-02-15T13:08:13.158Z,11.87
2023-02-15T13:10:43.681Z,12.07
2023-02-15T13:13:15.885Z,10.57
2023-02-15T13:15:46.536Z,12.87
2023-02-15T13:18:17.657Z,11.63
2023-02-15T13:20:47.403Z,13.80
2023-02-15T13:23:27.920Z,13.23
2023-02-15T13:25:58.179Z,14.53
2023-02-15T13:28:33.398Z,13.20
2023-02-15T13:31:01.370Z,13.87
2023-02-15T13:33:34.032Z,13.53
2023-02-15T13:36:10.469Z,14.00
2023-02-15T13:39:16.358Z,13.23
2023-02-15T13:41:56.225Z,15.20
2023-02-15T13:44:35.865Z,13.37
2023-02-15T13:47:18.085Z,14.00
2023-02-15T13:50:02.095Z,14.70
2023-02-15T13:52:33.153Z,13.40
2023-02-15T13:55:36.332Z,12.80
2023-02-15T13:58:51.969Z,12.40
2023-02-15T14:01:25.286Z,12.57
2023-02-15T14:04:37.452Z,14.10
2023-02-15T14:07:22.095Z,13.70
2023-02-15T14:09:59.651Z,13.20
2023-02-15T14:12:48.176Z,13.33
2023-02-15T14:15:27.268Z,11.67
2023-02-15T14:18:09.037Z,11.70
2023-02-15T14:20:52.662Z,10.23
2023-02-15T14:23:36.582Z,11.70
2023-02-15T14:26:10.157Z,13.20
2023-02-15T14:28:47.325Z,11.93
2023-02-15T14:31:29.322Z,12.90
2023-02-15T14:33:58.386Z,13.13
2023-02-15T14:36:28.969Z,12.30
2023-02-15T14:39:06.226Z,12.63
2023-02-15T14:41:41.744Z,13.40
2023-02-15T14:44:16.176Z,12.73
2023-02-15T14:46:51.475Z,14.60
2023-02-15T14:49:22.199Z,14.40
2023-02-15T14:52:05.341Z,13.10
2023-02-15T14:54:57.737Z,13.30
2023-02-15T14:57:34.837Z,14.50
2023-02-15T15:00:22.546Z,15.60
2023-02-15T15:02:52.928Z,15.50
2023-02-15T15:05:32.242Z,14.80
2023-02-15T15:08:02.103Z,15.93
2023-02-15T15:10:42.755Z,13.83
2023-02-15T15:13:38.311Z,14.87
2023-02-15T15:16:26.119Z,15.63
2023-02-15T15:18:55.963Z,14.00
2023-02-15T15:21:54.386Z,16.13
2023-02-15T15:24:47.750Z,13.63
2023-02-15T15:27:38.213Z,14.43
2023-02-15T15:31:00.016Z,13.63
2023-02-15T15:34:19.829Z,15.67
2023-02-15T15:37:27.877Z,15.37
2023-02-15T15:40:22.437Z,15.10
2023-02-15T15:43:09.948Z,16.30
2023-02-15T15:45:52.798Z,16.23
2023-02-15T15:48:33.821Z,14.83
2023-02-15T15:51:05.246Z,18.20
2023-02-15T15:53:41.504Z,15.67
2023-02-15T15:56:14.007Z,14.87
2023-02-15T15:58:47.278Z,15.97
2023-02-15T16:01:15.069Z,16.57
2023-02-15T16:03:51.671Z,15.90
2023-02-15T16:06:34.482Z,18.40
2023-02-15T16:09:18.747Z,17.30
2023-02-15T16:11:48.373Z,18.30
2023-02-15T16:14:18.286Z,19.20
2023-02-15T16:16:51.726Z,18.83
2023-02-15T16:19:27.225Z,18.00
2023-02-15T16:21:58.294Z,17.63
2023-02-15T16:25:12.505Z,19.70
2023-02-15T16:27:41.969Z,20.33
2023-02-15T16:30:31.067Z,20.43
2023-02-15T16:33:07.461Z,20.90
2023-02-15T16:35:35.338Z,21.03
2023-02-15T16:38:03.059Z,20.77
2023-02-15T16:40:42.695Z,19.13
2023-02-15T16:43:16.391Z,21.00
2023-02-15T16:45:44.394Z,21.17
2023-02-15T16:48:19.984Z,19.30
2023-02-15T16:50:51.586Z,20.10
2023-02-15T16:53:22.779Z,21.27
2023-02-15T16:55:54.123Z,23.20
2023-02-15T16:58:28.160Z,18.00
2023-02-15T17:00:59.111Z,21.50
2023-02-15T17:03:27.518Z,21.03
2023-02-15T17:05:57.016Z,19.50
2023-02-15T17:08:32.668Z,19.10
2023-02-15T17:11:16.490Z,21.87
2023-02-15T17:14:14.974Z,20.23
2023-02-15T17:16:50.039Z,21.03
2023-02-15T17:19:21.618Z,20.77
2023-02-15T17:21:52.741Z,19.67
2023-02-15T17:24:26.265Z,20.83
2023-02-15T17:27:00.113Z,21.27
2023-02-15T17:29:34.208Z,19.80
2023-02-15T17:32:02.464Z,20.93
2023-02-15T17:35:08.566Z,19.83
2023-02-15T17:37:45.831Z,19.30
2023-02-15T17:40:21.322Z,20.60
2023-02-15T17:42:49.606Z,18.60
2023-02-15T17:45:17.485Z,20.90
2023-02-15T17:47:46.625Z,19.37
2023-02-15T17:50:21.101Z,19.40
2023-02-15T17:52:48.840Z,21.87
2023-02-15T17:55:37.235Z,20.53
2023-02-15T17:58:08.289Z,22.40
2023-02-15T18:00:56.897Z,20.53
2023-02-15T18:03:43.889Z,18.30
2023-02-15T18:06:31.608Z,22.53
2023-02-15T18:09:17.523Z,20.40
2023-02-15T18:11:49.008Z,25.83
2023-02-15T18:14:17.132Z,21.50
2023-02-15T18:16:45.622Z,21.80
2023-02-15T18:19:17.247Z,20.63
2023-02-15T18:21:45.560Z,20.90
2023-02-15T18:24:18.306Z,21.83
2023-02-15T18:26:46.006Z,20.97
2023-02-15T18:29:13.516Z,21.80
2023-02-15T18:31:44.015Z,21.80
2023-02-15T18:34:24.440Z,23.17
2023-02-15T18:36:52.132Z,22.00
2023-02-15T18:39:36.460Z,22.77
2023-02-15T18:42:04.588Z,22.03
2023-02-15T18:44:32.325Z,22.87
2023-02-15T18:47:00.392Z,23.23
2023-02-15T18:49:27.837Z,23.47
2023-02-15T18:51:55.171Z,23.37
2023-02-15T18:54:24.562Z,22.73
2023-02-15T18:56:55.431Z,24.67
2023-02-15T18:59:23.731Z,23.03
2023-02-15T19:01:51.372Z,22.87
2023-02-15T19:04:19.975Z,24.70
2023-02-15T19:06:48.916Z,24.30
2023-02-15T19:09:19.311Z,22.67
2023-02-15T19:11:50.551Z,23.87
2023-02-15T19:14:27.607Z,24.67
2023-02-15T19:16:56.248Z,23.17
2023-02-15T19:19:24.792Z,20.70
2023-02-15T19:21:52.923Z,23.80
2023-02-15T19:24:25.207Z,22.10
2023-02-15T19:26:53.028Z,24.87
2023-02-15T19:29:27.128Z,23.93
2023-02-15T19:31:54.673Z,23.83
2023-02-15T19:34:23.057Z,24.07
2023-02-15T19:36:53.388Z,21.47
2023-02-15T19:39:27.079Z,23.60
2023-02-15T19:41:54.573Z,23.67
2023-02-15T19:44:22.322Z,21.87
2023-02-15T19:46:49.803Z,23.90
2023-02-15T19:49:17.385Z,23.70
2023-02-15T19:51:46.833Z,23.57
2023-02-15T19:54:22.825Z,24.77
2023-02-15T19:56:50.111Z,23.70
2023-02-15T19:59:24.484Z,21.30
2023-02-15T20:01:52.684Z,22.37
2023-02-15T20:04:20.447Z,22.67
2023-02-15T20:06:50.168Z,24.30
2023-02-15T20:09:23.315Z,25.53
2023-02-15T20:11:51.527Z,23.63
2023-02-15T20:14:19.469Z,22.50
2023-02-15T20:16:47.295Z,22.07
2023-02-15T20:19:15.356Z,25.83
2023-02-15T20:21:44.374Z,22.80
2023-02-15T20:24:16.065Z,22.40
2023-02-15T20:26:43.514Z,24.30
2023-02-15T20:29:13.286Z,21.10
2023-02-15T20:31:40.827Z,22.17
2023-02-15T20:34:08.296Z,20.77
2023-02-15T20:36:36.485Z,25.60
2023-02-15T20:39:10.797Z,21.83
2023-02-15T20:41:39.513Z,21.97
2023-02-15T20:44:22.745Z,23.77
2023-02-15T20:46:51.461Z,21.33
2023-02-15T20:49:18.879Z,24.97
2023-02-15T20:51:47.335Z,25.10
2023-02-15T20:54:16.845Z,23.50
2023-02-15T20:56:45.130Z,22.90
2023-02-15T20:59:24.487Z,26.60
2023-02-15T21:01:55.203Z,24.97
2023-02-15T21:04:26.411Z,22.40
2023-02-15T21:06:53.849Z,23.30
2023-02-15T21:09:21.297Z,24.63
2023-02-15T21:11:50.577Z,25.23
2023-02-15T21:14:19.870Z,23.50
2023-02-15T21:16:48.532Z,24.70
2023-02-15T21:19:17.822Z,23.30
2023-02-15T21:21:46.106Z,23.13
2023-02-15T21:24:20.020Z,23.07
2023-02-15T21:26:48.763Z,23.77
2023-02-15T21:29:17.352Z,24.70
2023-02-15T21:31:45.609Z,24.93
2023-02-15T21:34:13.782Z,25.30
2023-02-15T21:36:42.261Z,24.00
2023-02-15T21:39:17.739Z,24.83
2023-02-15T21:42:05.379Z,25.07
2023-02-15T21:44:52.064Z,21.87
2023-02-15T21:47:39.339Z,23.93
2023-02-15T21:50:23.203Z,24.40
2023-02-15T21:52:50.721Z,25.80
2023-02-15T21:55:18.118Z,23.07
2023-02-15T21:57:45.733Z,25.73
2023-02-15T22:00:19.115Z,24.77
2023-02-15T22:02:48.212Z,22.20
2023-02-15T22:05:18.279Z,24.10
2023-02-15T22:07:45.945Z,24.33
2023-02-15T22:10:13.386Z,25.37
2023-02-15T22:12:42.759Z,23.83
2023-02-15T22:15:19.382Z,22.77
2023-02-15T22:17:46.722Z,23.37
2023-02-15T22:20:18.171Z,22.90
2023-02-15T22:22:46.108Z,22.60
2023-02-15T22:25:15.981Z,23.30
2023-02-15T22:27:45.302Z,23.33
2023-02-15T22:30:24.736Z,22.10
2023-02-15T22:32:52.456Z,20.70
2023-02-15T22:35:22.100Z,22.20
2023-02-15T22:37:49.371Z,20.90
2023-02-15T22:40:18.622Z,22.57
2023-02-15T22:42:47.992Z,23.80
2023-02-15T22:45:18.837Z,21.90
2023-02-15T22:47:48.389Z,22.27
2023-02-15T22:50:17.833Z,22.20
2023-02-15T22:52:45.167Z,23.10
2023-02-15T22:55:15.598Z,20.07
2023-02-15T22:57:44.542Z,22.57
2023-02-15T23:00:17.058Z,22.37
2023-02-15T23:02:44.453Z,21.50
2023-02-15T23:05:19.033Z,23.40
2023-02-15T23:07:47.064Z,23.77
2023-02-15T23:10:20.697Z,23.70
2023-02-15T23:13:07.333Z,21.57
2023-02-15T23:15:35.426Z,21.27
2023-02-15T23:18:15.038Z,20.43
2023-02-15T23:20:43.283Z,22.00
2023-02-15T23:23:12.726Z,21.33
2023-02-15T23:25:40.598Z,19.87
2023-02-15T23:28:17.760Z,22.27
2023-02-15T23:30:45.454Z,21.87
2023-02-15T23:33:12.966Z,21.43
2023-02-15T23:35:40.723Z,23.20
2023-02-15T23:38:22.990Z,21.33
2023-02-15T23:41:20.713Z,21.17
2023-02-15T23:43:52.846Z,18.97
2023-02-15T23:46:26.798Z,21.07
2023-02-15T23:48:54.808Z,20.00
2023-02-15T23:51:27.149Z,21.37
2023-02-15T23:53:55.102Z,20.80
2023-02-15T23:56:22.380Z,20.67
2023-02-15T23:58:50.043Z,20.70
